createdAt,value
2023-03-10T00:00:23.239Z,1.27
2023-03-10T00:02:50.600Z,9.02
2023-03-10T00:05:19.821Z,1.67
2023-03-10T00:07:47.860Z,3.20
2023-03-10T00:10:15.543Z,4.43
2023-03-10T00:12:42.712Z,5.72
2023-03-10T00:15:10.420Z,3.55
2023-03-10T00:17:37.855Z,5.72
2023-03-10T00:20:11.722Z,1.40
2023-03-10T00:22:41.762Z,1.67
2023-03-10T00:25:10.125Z,0.90
2023-03-10T00:27:37.257Z,3.60
2023-03-10T00:30:05.323Z,0.52
2023-03-10T00:32:34.149Z,3.40
2023-03-10T00:35:01.257Z,1.00
2023-03-10T00:37:28.254Z,0.82
2023-03-10T00:39:55.806Z,1.88
2023-03-10T00:42:22.983Z,1.98
2023-03-10T00:44:49.883Z,3.45
2023-03-10T00:47:17.246Z,2.70
2023-03-10T00:49:44.600Z,2.10
2023-03-10T00:52:12.134Z,6.05
2023-03-10T00:54:41.142Z,3.10
2023-03-10T00:57:09.116Z,4.97
2023-03-10T00:59:49.384Z,2.42
2023-03-10T01:02:18.156Z,1.95
2023-03-10T01:04:45.184Z,10.98
2023-03-10T01:07:12.227Z,0.55
2023-03-10T01:09:39.296Z,6.75
2023-03-10T01:12:06.639Z,0.30
2023-03-10T01:14:33.584Z,1.98
2023-03-10T01:17:00.644Z,4.60
2023-03-10T01:19:27.650Z,3.13
2023-03-10T01:21:54.597Z,1.30
2023-03-10T01:24:21.582Z,1.42
2023-03-10T01:26:48.563Z,1.55
2023-03-10T01:29:15.740Z,2.28
2023-03-10T01:31:42.751Z,4.18
2023-03-10T01:34:09.733Z,1.65
2023-03-10T01:36:36.668Z,1.95
2023-03-10T01:39:04.148Z,20.45
2023-03-10T01:41:31.060Z,1.30
2023-03-10T01:43:58.346Z,0.73
2023-03-10T01:46:38.082Z,2.63
2023-03-10T01:49:14.528Z,2.25
2023-03-10T01:51:47.506Z,1.00
2023-03-10T01:54:22.904Z,3.45
2023-03-10T01:56:52.507Z,0.60
2023-03-10T01:59:20.896Z,0.55
2023-03-10T02:01:50.537Z,1.30
2023-03-10T02:04:42.206Z,0.98
2023-03-10T02:07:09.991Z,3.05
2023-03-10T02:09:41.570Z,5.10
2023-03-10T02:12:09.665Z,0.80
2023-03-10T02:14:36.946Z,2.05
2023-03-10T02:17:13.865Z,3.03
2023-03-10T02:19:53.091Z,1.88
2023-03-10T02:22:20.464Z,4.35
2023-03-10T02:24:54.163Z,1.52
2023-03-10T02:27:22.998Z,1.90
2023-03-10T02:29:59.649Z,3.55
2023-03-10T02:32:30.474Z,2.13
2023-03-10T02:34:57.511Z,1.38
2023-03-10T02:37:30.841Z,3.95
2023-03-10T02:39:58.735Z,4.20
2023-03-10T02:42:30.408Z,4.00
2023-03-10T02:44:57.365Z,2.15
2023-03-10T02:47:25.053Z,0.30
2023-03-10T02:49:52.267Z,1.77
2023-03-10T02:52:34.759Z,2.85
2023-03-10T02:55:02.079Z,2.45
2023-03-10T02:57:28.987Z,0.13
2023-03-10T02:59:55.993Z,2.72
2023-03-10T03:02:22.919Z,1.10
2023-03-10T03:04:50.167Z,1.55
2023-03-10T03:07:17.238Z,1.10
2023-03-10T03:09:44.370Z,2.63
2023-03-10T03:12:11.324Z,0.20
2023-03-10T03:14:38.300Z,0.90
2023-03-10T03:17:05.305Z,1.20
2023-03-10T03:19:32.262Z,0.35
2023-03-10T03:21:59.272Z,1.33
2023-03-10T03:24:26.360Z,1.20
2023-03-10T03:26:53.271Z,0.43
2023-03-10T03:29:20.240Z,2.13
2023-03-10T03:31:47.807Z,3.17
2023-03-10T03:34:15.737Z,0.57
2023-03-10T03:36:42.727Z,1.45
2023-03-10T03:39:09.832Z,1.73
2023-03-10T03:41:37.238Z,0.80
2023-03-10T03:44:04.249Z,1.95
2023-03-10T03:46:31.284Z,0.95
2023-03-10T03:48:58.377Z,1.65
2023-03-10T03:51:25.422Z,1.20
2023-03-10T03:53:52.397Z,0.50
2023-03-10T03:56:19.344Z,1.67
2023-03-10T03:58:46.361Z,0.52
2023-03-10T04:01:13.317Z,0.20
2023-03-10T04:03:40.435Z,0.57
2023-03-10T04:06:08.282Z,0.10
2023-03-10T04:08:35.227Z,0.52
2023-03-10T04:11:02.653Z,0.30
2023-03-10T04:13:29.634Z,1.05
2023-03-10T04:15:58.824Z,1.63
2023-03-10T04:18:26.548Z,1.40
2023-03-10T04:20:53.607Z,2.35
2023-03-10T04:23:20.573Z,2.33
2023-03-10T04:25:47.555Z,1.17
2023-03-10T04:28:15.456Z,0.60
2023-03-10T04:30:44.741Z,4.03
2023-03-10T04:33:12.190Z,3.55
2023-03-10T04:35:41.546Z,2.78
2023-03-10T04:38:09.199Z,1.17
2023-03-10T04:40:36.167Z,0.60
2023-03-10T04:43:03.249Z,2.40
2023-03-10T04:45:30.675Z,1.85
2023-03-10T04:47:57.912Z,1.70
2023-03-10T04:50:25.112Z,3.40
2023-03-10T04:52:52.140Z,2.10
2023-03-10T04:55:19.518Z,1.80
2023-03-10T04:57:46.472Z,3.33
2023-03-10T05:00:13.903Z,0.75
2023-03-10T05:02:41.512Z,0.50
2023-03-10T05:05:10.441Z,1.08
2023-03-10T05:07:37.407Z,4.53
2023-03-10T05:10:05.472Z,2.30
2023-03-10T05:12:32.518Z,0.70
2023-03-10T05:14:59.484Z,0.45
2023-03-10T05:17:28.506Z,0.45
2023-03-10T05:19:55.637Z,2.92
2023-03-10T05:22:22.686Z,1.65
2023-03-10T05:24:50.031Z,3.42
2023-03-10T05:27:19.851Z,0.38
2023-03-10T05:29:47.306Z,2.25
2023-03-10T05:32:14.314Z,3.70
2023-03-10T05:34:41.330Z,3.35
2023-03-10T05:37:08.411Z,3.30
2023-03-10T05:39:35.326Z,3.25
2023-03-10T05:42:03.084Z,1.80
2023-03-10T05:44:30.025Z,2.85
2023-03-10T05:46:56.997Z,5.78
2023-03-10T05:49:24.088Z,0.40
2023-03-10T05:51:51.093Z,3.40
2023-03-10T05:54:19.013Z,4.65
2023-03-10T05:56:46.011Z,0.13
2023-03-10T05:59:12.989Z,7.15
2023-03-10T06:01:40.263Z,0.15
2023-03-10T06:04:07.399Z,4.65
2023-03-10T06:06:35.027Z,2.35
2023-03-10T06:09:02.214Z,1.95
2023-03-10T06:11:29.877Z,2.72
2023-03-10T06:13:57.116Z,3.38
2023-03-10T06:16:24.111Z,3.40
2023-03-10T06:18:55.143Z,1.35
2023-03-10T06:21:22.932Z,4.05
2023-03-10T06:23:50.533Z,1.55
2023-03-10T06:26:18.140Z,0.32
2023-03-10T06:28:46.671Z,5.85
2023-03-10T06:31:22.269Z,5.47
2023-03-10T06:33:49.461Z,2.50
2023-03-10T06:36:17.777Z,2.20
2023-03-10T06:38:44.759Z,1.67
2023-03-10T06:41:12.273Z,2.65
2023-03-10T06:43:39.772Z,1.25
2023-03-10T06:46:09.471Z,4.03
2023-03-10T06:48:37.433Z,1.05
2023-03-10T06:51:09.460Z,0.32
2023-03-10T06:53:36.829Z,1.83
2023-03-10T06:56:07.001Z,0.77
2023-03-10T06:58:35.820Z,0.82
2023-03-10T07:01:03.227Z,1.23
2023-03-10T07:03:30.772Z,6.03
2023-03-10T07:05:59.434Z,1.27
2023-03-10T07:08:30.090Z,1.90
2023-03-10T07:10:57.628Z,2.33
2023-03-10T07:13:25.354Z,0.35
2023-03-10T07:15:52.507Z,5.95
2023-03-10T07:18:19.801Z,3.13
2023-03-10T07:20:47.889Z,3.97
2023-03-10T07:23:15.368Z,2.25
2023-03-10T07:25:42.369Z,0.52
2023-03-10T07:28:09.576Z,0.80
2023-03-10T07:30:37.932Z,1.40
2023-03-10T07:33:05.438Z,0.75
2023-03-10T07:35:34.200Z,1.30
2023-03-10T07:38:04.391Z,2.67
2023-03-10T07:40:31.772Z,4.75
2023-03-10T07:42:58.777Z,2.50
2023-03-10T07:45:26.871Z,3.03
2023-03-10T07:47:54.665Z,3.55
2023-03-10T07:50:22.120Z,4.13
2023-03-10T07:52:49.211Z,2.38
2023-03-10T07:55:16.267Z,1.52
2023-03-10T07:57:43.231Z,4.15
2023-03-10T08:00:11.688Z,4.53
2023-03-10T08:02:39.337Z,2.65
2023-03-10T08:05:07.270Z,5.85
2023-03-10T08:07:34.356Z,2.42
2023-03-10T08:10:01.800Z,16.15
2023-03-10T08:12:28.843Z,12.70
2023-03-10T08:14:55.772Z,2.92
2023-03-10T08:17:24.828Z,9.02
2023-03-10T08:19:52.087Z,6.35
2023-03-10T08:22:22.267Z,4.55
2023-03-10T08:24:49.552Z,0.70
2023-03-10T08:27:16.427Z,6.60
2023-03-10T08:29:43.837Z,5.88
2023-03-10T08:32:10.784Z,2.40
2023-03-10T08:34:37.742Z,0.95
2023-03-10T08:37:04.844Z,1.98
2023-03-10T08:39:31.812Z,3.88
2023-03-10T08:41:58.752Z,1.85
2023-03-10T08:44:25.904Z,4.50
2023-03-10T08:46:53.106Z,3.90
2023-03-10T08:49:21.653Z,6.32
2023-03-10T08:51:49.460Z,2.97
2023-03-10T08:54:19.479Z,3.40
2023-03-10T08:56:46.763Z,3.75
2023-03-10T08:59:13.772Z,6.97
2023-03-10T09:01:40.809Z,2.97
2023-03-10T09:04:09.245Z,2.47
2023-03-10T09:06:36.960Z,4.60
2023-03-10T09:09:05.792Z,1.38
2023-03-10T09:11:35.469Z,3.45
2023-03-10T09:14:05.310Z,4.60
2023-03-10T09:16:32.499Z,3.03
2023-03-10T09:19:00.769Z,1.17
2023-03-10T09:21:31.958Z,10.05
2023-03-10T09:24:00.926Z,10.95
2023-03-10T09:26:27.999Z,2.88
2023-03-10T09:28:56.990Z,2.17
2023-03-10T09:31:29.750Z,2.85
2023-03-10T09:33:56.869Z,6.18
2023-03-10T09:36:23.895Z,1.48
2023-03-10T09:38:50.985Z,2.55
2023-03-10T09:41:39.823Z,3.85
2023-03-10T09:44:30.998Z,0.90
2023-03-10T09:47:10.389Z,2.47
2023-03-10T09:50:12.184Z,1.30
2023-03-10T09:52:56.157Z,1.80
2023-03-10T09:55:48.010Z,2.10
2023-03-10T09:58:41.550Z,3.65
2023-03-10T10:01:18.018Z,6.53
2023-03-10T10:04:16.137Z,2.60
2023-03-10T10:06:46.783Z,4.65
2023-03-10T10:09:32.947Z,2.85
2023-03-10T10:12:14.089Z,0.73
2023-03-10T10:14:48.040Z,2.65
2023-03-10T10:18:17.823Z,3.40
2023-03-10T10:20:50.678Z,2.75
2023-03-10T10:23:41.938Z,5.20
2023-03-10T10:26:12.872Z,2.35
2023-03-10T10:29:00.117Z,1.90
2023-03-10T10:31:31.579Z,8.27
2023-03-10T10:34:04.369Z,4.63
2023-03-10T10:36:48.427Z,4.75
2023-03-10T10:39:28.116Z,2.85
2023-03-10T10:42:11.792Z,3.08
2023-03-10T10:44:43.773Z,5.10
2023-03-10T10:47:29.194Z,3.00
2023-03-10T10:50:11.187Z,8.75
2023-03-10T10:52:40.189Z,5.40
2023-03-10T10:55:24.049Z,3.90
2023-03-10T10:57:57.145Z,13.38
2023-03-10T11:00:26.684Z,5.75
2023-03-10T11:02:54.122Z,2.05
2023-03-10T11:05:37.404Z,5.22
2023-03-10T11:08:40.823Z,2.83
2023-03-10T11:11:25.745Z,4.05
2023-03-10T11:14:17.248Z,1.67
2023-03-10T11:17:08.406Z,8.10
2023-03-10T11:19:46.128Z,8.20
2023-03-10T11:22:26.692Z,9.70
2023-03-10T11:24:53.572Z,2.35
2023-03-10T11:28:06.138Z,3.55
2023-03-10T11:30:35.863Z,11.43
2023-03-10T11:33:12.225Z,9.48
2023-03-10T11:38:42.556Z,4.35
2023-03-10T11:41:19.979Z,12.98
2023-03-10T11:43:56.179Z,3.35
2023-03-10T11:47:00.889Z,3.83
2023-03-10T11:49:36.407Z,7.45
2023-03-10T11:52:12.120Z,2.93
2023-03-10T11:54:57.654Z,4.57
2023-03-10T11:57:28.172Z,4.03
2023-03-10T12:00:02.279Z,5.88
2023-03-10T12:02:44.634Z,3.25
2023-03-10T12:05:21.473Z,6.63
2023-03-10T12:07:53.059Z,8.52
2023-03-10T12:10:22.063Z,4.53
2023-03-10T12:12:50.691Z,2.90
2023-03-10T12:15:30.424Z,4.93
2023-03-10T12:17:58.619Z,5.82
2023-03-10T12:20:29.509Z,1.27
2023-03-10T12:23:00.617Z,2.60
2023-03-10T12:25:30.449Z,3.45
2023-03-10T12:28:16.116Z,0.95
2023-03-10T12:30:53.421Z,6.75
2023-03-10T12:33:38.654Z,4.43
2023-03-10T12:36:11.763Z,1.90
2023-03-10T12:38:59.650Z,0.90
2023-03-10T12:41:27.124Z,4.75
2023-03-10T12:44:23.584Z,4.07
2023-03-10T12:47:08.870Z,4.13
2023-03-10T12:49:36.393Z,6.32
2023-03-10T12:52:21.829Z,15.10
2023-03-10T12:55:11.528Z,5.18
2023-03-10T12:57:59.039Z,1.33
2023-03-10T13:00:49.438Z,2.22
2023-03-10T13:03:25.003Z,5.57
2023-03-10T13:06:15.046Z,6.47
2023-03-10T13:08:47.769Z,1.63
2023-03-10T13:11:24.959Z,1.90
2023-03-10T13:13:57.588Z,0.47
2023-03-10T13:16:24.557Z,1.17
2023-03-10T13:18:53.644Z,1.42
2023-03-10T13:21:33.510Z,4.00
2023-03-10T13:24:02.757Z,3.97
2023-03-10T13:26:30.425Z,2.45
2023-03-10T13:29:00.741Z,2.45
2023-03-10T13:31:34.899Z,5.95
2023-03-10T13:34:19.316Z,1.67
2023-03-10T13:36:47.394Z,1.83
2023-03-10T13:39:16.015Z,4.38
2023-03-10T13:41:54.680Z,3.08
2023-03-10T13:44:25.495Z,1.95
2023-03-10T13:46:55.846Z,1.20
2023-03-10T13:49:27.968Z,2.28
2023-03-10T13:51:58.307Z,1.27
2023-03-10T13:54:36.309Z,2.13
2023-03-10T13:57:25.788Z,2.53
2023-03-10T13:59:54.573Z,3.20
2023-03-10T14:02:47.422Z,0.93
2023-03-10T14:05:48.928Z,2.75
2023-03-10T14:08:28.781Z,8.05
2023-03-10T14:11:31.496Z,1.85
2023-03-10T14:13:58.838Z,2.65
2023-03-10T14:16:52.298Z,4.47
2023-03-10T14:19:46.275Z,9.82
2023-03-10T14:22:41.601Z,1.33
2023-03-10T14:25:17.850Z,2.58
2023-03-10T14:30:22.349Z,4.05
2023-03-10T14:32:49.785Z,1.08
2023-03-10T14:35:20.312Z,1.88
2023-03-10T14:37:51.413Z,2.05
2023-03-10T14:40:20.699Z,7.93
2023-03-10T14:42:50.141Z,6.80
2023-03-10T14:45:35.865Z,1.55
2023-03-10T14:48:11.427Z,3.03
2023-03-10T14:50:38.675Z,2.88
2023-03-10T14:53:10.373Z,2.97
2023-03-10T14:55:37.690Z,4.93
2023-03-10T14:58:05.700Z,2.90
2023-03-10T15:00:33.238Z,1.13
2023-03-10T15:03:00.304Z,3.70
2023-03-10T15:05:45.105Z,2.53
2023-03-10T15:08:14.941Z,1.83
2023-03-10T15:10:44.262Z,4.78
2023-03-10T15:13:14.711Z,2.58
2023-03-10T15:15:46.170Z,1.08
2023-03-10T15:18:15.224Z,3.28
2023-03-10T15:20:42.189Z,9.57
2023-03-10T15:23:11.955Z,4.95
2023-03-10T15:25:41.120Z,1.50
2023-03-10T15:28:08.076Z,2.60
2023-03-10T15:30:36.718Z,5.53
2023-03-10T15:33:04.585Z,4.32
2023-03-10T15:35:32.298Z,6.00
2023-03-10T15:37:59.406Z,3.47
2023-03-10T15:40:28.805Z,1.52
2023-03-10T15:42:57.490Z,3.20
2023-03-10T15:45:26.441Z,3.13
2023-03-10T15:47:53.385Z,0.82
2023-03-10T15:50:21.597Z,2.00
2023-03-10T15:52:59.098Z,2.28
2023-03-10T15:55:27.900Z,1.77
2023-03-10T15:57:56.170Z,0.68
2023-03-10T16:00:24.672Z,3.00
2023-03-10T16:02:51.942Z,1.38
2023-03-10T16:05:19.533Z,1.40
2023-03-10T16:07:46.742Z,2.78
2023-03-10T16:10:16.504Z,1.98
2023-03-10T16:12:43.452Z,2.30
2023-03-10T16:15:11.170Z,2.88
2023-03-10T16:17:38.496Z,1.48
2023-03-10T16:20:12.142Z,0.90
2023-03-10T16:22:41.648Z,2.15
2023-03-10T16:25:15.432Z,2.42
2023-03-10T16:27:44.104Z,1.73
2023-03-10T16:30:13.483Z,2.10
2023-03-10T16:32:43.710Z,2.17
2023-03-10T16:35:10.676Z,4.78
2023-03-10T16:37:37.645Z,0.80
2023-03-10T16:40:05.562Z,0.73
2023-03-10T16:42:35.950Z,3.03
2023-03-10T16:45:04.646Z,0.75
2023-03-10T16:47:32.708Z,1.88
2023-03-10T16:49:59.666Z,4.25
2023-03-10T16:52:26.700Z,6.07
2023-03-10T16:54:57.943Z,3.55
2023-03-10T16:57:24.859Z,3.33
2023-03-10T16:59:52.212Z,6.15
2023-03-10T17:02:20.052Z,1.75
2023-03-10T17:04:47.092Z,6.50
2023-03-10T17:07:14.324Z,4.70
2023-03-10T17:09:41.689Z,2.90
2023-03-10T17:12:09.197Z,1.65
2023-03-10T17:14:36.534Z,4.70
2023-03-10T17:17:05.837Z,3.55
2023-03-10T17:19:34.419Z,3.22
2023-03-10T17:22:01.359Z,2.30
2023-03-10T17:24:28.443Z,4.85
2023-03-10T17:26:55.552Z,5.88
2023-03-10T17:29:23.018Z,6.60
2023-03-10T17:31:51.592Z,3.38
2023-03-10T17:34:20.255Z,4.50
2023-03-10T17:36:50.401Z,2.88
2023-03-10T17:39:19.831Z,7.88
2023-03-10T17:41:47.798Z,12.00
2023-03-10T17:44:15.263Z,11.32
2023-03-10T17:46:42.472Z,5.38
2023-03-10T17:49:13.015Z,7.93
2023-03-10T17:51:43.685Z,6.13
2023-03-10T17:54:15.910Z,3.78
2023-03-10T17:56:43.026Z,3.53
2023-03-10T17:59:12.745Z,3.70
2023-03-10T18:01:40.267Z,3.22
2023-03-10T18:04:07.463Z,2.17
2023-03-10T18:06:36.010Z,4.45
2023-03-10T18:09:06.433Z,2.72
2023-03-10T18:11:34.273Z,3.08
2023-03-10T18:14:03.490Z,1.73
2023-03-10T18:16:36.895Z,3.38
2023-03-10T18:19:04.414Z,3.42
2023-03-10T18:21:31.448Z,3.65
2023-03-10T18:23:58.726Z,3.33
2023-03-10T18:26:30.562Z,3.10
2023-03-10T18:28:59.567Z,3.78
2023-03-10T18:31:30.112Z,3.13
2023-03-10T18:33:57.292Z,2.95
2023-03-10T18:36:24.837Z,4.68
2023-03-10T18:38:53.617Z,9.10
2023-03-10T18:41:22.880Z,6.03
2023-03-10T18:43:50.344Z,7.15
2023-03-10T18:46:17.785Z,6.70
2023-03-10T18:48:45.342Z,17.20
2023-03-10T18:51:13.645Z,7.35
2023-03-10T18:53:41.215Z,9.13
2023-03-10T18:56:08.318Z,8.65
2023-03-10T18:58:35.469Z,11.75
2023-03-10T19:01:02.567Z,17.33
2023-03-10T19:03:30.267Z,14.10
2023-03-10T19:05:58.090Z,12.00
2023-03-10T19:08:27.381Z,7.20
2023-03-10T19:11:00.065Z,11.13
2023-03-10T19:13:28.481Z,7.50
2023-03-10T19:15:56.599Z,6.22
2023-03-10T19:18:24.273Z,6.25
2023-03-10T19:20:51.792Z,4.97
2023-03-10T19:23:18.891Z,4.53
2023-03-10T19:25:46.433Z,5.60
2023-03-10T19:28:13.377Z,3.80
2023-03-10T19:30:43.036Z,3.17
2023-03-10T19:33:11.027Z,5.10
2023-03-10T19:35:38.320Z,8.50
2023-03-10T19:38:05.544Z,6.85
2023-03-10T19:40:33.900Z,5.40
2023-03-10T19:43:00.926Z,5.70
2023-03-10T19:45:28.888Z,13.38
2023-03-10T19:47:58.072Z,12.75
2023-03-10T19:50:27.351Z,13.10
2023-03-10T19:52:54.356Z,19.20
2023-03-10T19:55:23.537Z,19.00
2023-03-10T19:57:52.126Z,14.27
2023-03-10T20:00:25.414Z,17.42
2023-03-10T20:02:54.272Z,21.00
2023-03-10T20:05:23.017Z,15.75
2023-03-10T20:07:50.086Z,13.27
2023-03-10T20:10:18.007Z,17.38
2023-03-10T20:12:47.253Z,12.05
2023-03-10T20:15:14.996Z,11.55
2023-03-10T20:17:41.918Z,9.20
2023-03-10T20:20:10.834Z,11.38
2023-03-10T20:22:40.853Z,13.20
2023-03-10T20:25:09.779Z,10.75
2023-03-10T20:27:37.504Z,16.95
2023-03-10T20:30:12.858Z,13.43
2023-03-10T20:32:40.154Z,49.27
2023-03-10T20:35:07.496Z,28.30
2023-03-10T20:37:35.932Z,34.22
2023-03-10T20:40:06.303Z,28.30
2023-03-10T20:42:33.777Z,22.05
2023-03-10T20:45:01.018Z,19.25
2023-03-10T20:47:29.155Z,17.08
2023-03-10T20:49:57.431Z,15.82
2023-03-10T20:52:24.636Z,18.15
2023-03-10T20:54:54.297Z,23.05
2023-03-10T20:57:21.563Z,19.17
2023-03-10T20:59:48.574Z,16.23
2023-03-10T21:02:16.382Z,12.05
2023-03-10T21:04:43.422Z,10.98
2023-03-10T21:07:10.763Z,9.40
2023-03-10T21:09:38.287Z,12.98
2023-03-10T21:12:05.321Z,9.68
2023-03-10T21:14:32.371Z,11.63
2023-03-10T21:17:00.043Z,11.70
2023-03-10T21:19:27.821Z,11.10
2023-03-10T21:21:55.415Z,7.47
2023-03-10T21:24:22.584Z,8.20
2023-03-10T21:26:50.338Z,8.05
2023-03-10T21:29:17.555Z,12.18
2023-03-10T21:31:44.450Z,8.23
2023-03-10T21:34:11.934Z,11.60
2023-03-10T21:36:39.815Z,10.95
2023-03-10T21:39:09.092Z,9.13
2023-03-10T21:41:36.367Z,10.57
2023-03-10T21:44:04.270Z,6.90
2023-03-10T21:46:32.025Z,10.07
2023-03-10T21:48:59.368Z,6.18
2023-03-10T21:51:26.827Z,12.20
2023-03-10T21:53:55.217Z,9.55
2023-03-10T21:56:25.834Z,10.30
2023-03-10T21:58:52.867Z,7.18
2023-03-10T22:01:19.849Z,9.68
2023-03-10T22:03:46.815Z,7.43
2023-03-10T22:06:13.788Z,11.32
2023-03-10T22:08:41.056Z,8.20
2023-03-10T22:11:09.499Z,6.22
2023-03-10T22:13:37.877Z,6.53
2023-03-10T22:16:07.467Z,5.82
2023-03-10T22:18:34.618Z,3.30
2023-03-10T22:21:01.590Z,3.17
2023-03-10T22:23:28.673Z,3.38
2023-03-10T22:25:55.830Z,6.43
2023-03-10T22:28:22.987Z,5.10
2023-03-10T22:30:49.866Z,10.32
2023-03-10T22:33:16.751Z,21.08
2023-03-10T22:35:47.532Z,7.88
2023-03-10T22:38:14.535Z,6.00
2023-03-10T22:40:41.446Z,4.40
2023-03-10T22:43:08.399Z,1.90
2023-03-10T22:45:35.835Z,1.88
2023-03-10T22:48:05.706Z,1.38
2023-03-10T22:50:38.971Z,1.17
2023-03-10T22:53:10.692Z,1.38
2023-03-10T22:55:37.795Z,1.08
2023-03-10T22:58:06.982Z,1.13
2023-03-10T23:00:35.027Z,0.77
2023-03-10T23:03:04.814Z,1.40
2023-03-10T23:05:32.291Z,0.95
2023-03-10T23:07:59.364Z,0.40
2023-03-10T23:10:29.213Z,2.58
2023-03-10T23:12:58.130Z,0.80
2023-03-10T23:15:28.102Z,1.30
2023-03-10T23:17:56.584Z,1.20
2023-03-10T23:20:27.582Z,1.70
2023-03-10T23:22:56.710Z,1.05
2023-03-10T23:25:26.769Z,1.33
2023-03-10T23:27:53.867Z,7.00
2023-03-10T23:30:20.981Z,1.33
2023-03-10T23:32:49.641Z,1.90
2023-03-10T23:35:20.488Z,3.00
2023-03-10T23:37:47.356Z,0.70
2023-03-10T23:40:18.220Z,1.05
2023-03-10T23:42:45.733Z,3.78
2023-03-10T23:45:16.456Z,1.25
2023-03-10T23:47:44.093Z,1.20
2023-03-10T23:50:23.838Z,2.58
2023-03-10T23:52:50.962Z,2.67
2023-03-10T23:55:22.678Z,1.75
2023-03-10T23:57:49.953Z,0.70
